createdAt,value
2023-04-08T00:01:55.503Z,-15.48
2023-04-08T00:06:58.333Z,-15.43
2023-04-08T00:12:01.658Z,-15.41
2023-04-08T00:17:04.327Z,-15.38
2023-04-08T00:22:07.320Z,-15.46
2023-04-08T00:27:10.106Z,-15.42
2023-04-08T00:32:13.491Z,-15.33
2023-04-08T00:37:16.585Z,-15.31
2023-04-08T00:42:19.245Z,-15.23
2023-04-08T00:47:23.050Z,-15.12
2023-04-08T00:52:26.146Z,-15.04
2023-04-08T00:57:29.141Z,-14.90
2023-04-08T01:03:04.138Z,-14.74
2023-04-08T01:08:08.171Z,-14.56
2023-04-08T01:13:13.338Z,-14.42
2023-04-08T01:18:16.864Z,-14.29
2023-04-08T01:23:31.637Z,-14.24
2023-04-08T01:28:34.799Z,-14.10
2023-04-08T01:33:37.775Z,-13.94
2023-04-08T01:38:40.958Z,-13.87
2023-04-08T01:43:43.825Z,-13.67
2023-04-08T01:48:46.775Z,-13.59
2023-04-08T01:53:49.592Z,-13.45
2023-04-08T01:58:53.667Z,-13.25
2023-04-08T02:03:57.918Z,-13.14
2023-04-08T02:09:01.557Z,-13.03
2023-04-08T02:14:04.342Z,-12.99
2023-04-08T02:19:14.992Z,-12.83
2023-04-08T02:24:19.497Z,-12.65
2023-04-08T02:29:23.202Z,-12.56
2023-04-08T02:34:30.957Z,-12.55
2023-04-08T02:39:33.935Z,-12.52
2023-04-08T02:44:36.717Z,-12.57
2023-04-08T02:49:39.559Z,-12.43
2023-04-08T02:54:42.275Z,-12.35
2023-04-08T02:59:44.979Z,-12.29
2023-04-08T03:04:47.714Z,-12.26
2023-04-08T03:09:51.353Z,-12.20
2023-04-08T03:14:54.585Z,-11.93
2023-04-08T03:19:57.350Z,-11.73
2023-04-08T03:25:00.343Z,-11.64
2023-04-08T03:30:03.334Z,-11.61
2023-04-08T03:35:07.004Z,-11.51
2023-04-08T03:40:10.473Z,-11.43
2023-04-08T03:45:13.357Z,-11.40
2023-04-08T03:50:16.442Z,-11.22
2023-04-08T03:55:19.161Z,-11.11
2023-04-08T04:00:21.900Z,-10.96
2023-04-08T04:05:24.645Z,-10.77
2023-04-08T04:10:27.389Z,-10.63
2023-04-08T04:15:30.153Z,-10.52
2023-04-08T04:20:32.969Z,-10.44
2023-04-08T04:25:36.045Z,-10.24
2023-04-08T04:30:39.671Z,-10.15
2023-04-08T04:35:42.680Z,-10.01
2023-04-08T04:40:45.771Z,-9.88
2023-04-08T04:45:48.794Z,-9.74
2023-04-08T04:50:58.202Z,-9.57
2023-04-08T04:56:03.763Z,-9.57
2023-04-08T05:01:06.734Z,-9.47
2023-04-08T05:06:09.605Z,-9.37
2023-04-08T05:11:12.972Z,-9.16
2023-04-08T05:16:15.685Z,-9.03
2023-04-08T05:21:18.535Z,-9.01
2023-04-08T05:26:22.160Z,-8.94
2023-04-08T05:31:25.233Z,-8.91
2023-04-08T05:36:28.555Z,-8.72
2023-04-08T05:41:31.395Z,-8.54
2023-04-08T05:46:34.164Z,-8.51
2023-04-08T05:51:37.044Z,-8.36
2023-04-08T05:56:39.841Z,-8.33
2023-04-08T06:01:42.764Z,-8.18
2023-04-08T06:06:45.578Z,-8.04
2023-04-08T06:11:50.141Z,-7.86
2023-04-08T06:16:55.033Z,-7.58
2023-04-08T06:21:59.433Z,-7.49
2023-04-08T06:27:02.097Z,-7.35
2023-04-08T06:32:06.531Z,-7.34
2023-04-08T06:37:09.117Z,-7.20
2023-04-08T06:42:11.847Z,-7.15
2023-04-08T06:47:28.846Z,-6.94
2023-04-08T06:52:31.631Z,-6.66
2023-04-08T06:57:34.364Z,-6.37
2023-04-08T07:02:37.316Z,-6.22
2023-04-08T07:07:40.134Z,-6.05
2023-04-08T07:12:43.069Z,-5.92
2023-04-08T07:17:46.663Z,-5.88
2023-04-08T07:22:50.008Z,-5.81
2023-04-08T07:27:53.260Z,-5.77
2023-04-08T07:33:00.031Z,-5.62
2023-04-08T07:38:03.744Z,-5.50
2023-04-08T07:43:06.718Z,-5.40
2023-04-08T07:48:09.400Z,-5.10
2023-04-08T07:53:12.497Z,-4.81
2023-04-08T07:58:15.362Z,-4.71
2023-04-08T08:03:18.441Z,-4.64
2023-04-08T08:08:21.704Z,-4.61
2023-04-08T08:13:24.500Z,-4.42
2023-04-08T08:18:27.503Z,-4.41
2023-04-08T08:23:30.258Z,-4.41
2023-04-08T08:28:36.046Z,-4.27
2023-04-08T08:33:38.877Z,-4.32
2023-04-08T08:38:41.647Z,-4.19
2023-04-08T08:43:45.509Z,-4.04
2023-04-08T08:48:48.394Z,-4.06
2023-04-08T08:53:51.342Z,-3.95
2023-04-08T08:58:55.237Z,-3.79
2023-04-08T09:04:20.874Z,-3.83
2023-04-08T09:09:23.792Z,-3.77
2023-04-08T09:14:26.624Z,-3.79
2023-04-08T09:19:29.392Z,-3.70
2023-04-08T09:24:32.360Z,-3.75
2023-04-08T09:29:38.218Z,-3.56
2023-04-08T09:34:42.403Z,-3.43
2023-04-08T09:39:45.602Z,-3.37
2023-04-08T09:44:48.577Z,-3.32
2023-04-08T09:49:58.896Z,-3.37
2023-04-08T09:55:06.870Z,-3.35
2023-04-08T10:00:16.661Z,-3.34
2023-04-08T10:05:20.062Z,-3.33
2023-04-08T10:10:23.052Z,-3.37
2023-04-08T10:15:33.202Z,-3.25
2023-04-08T10:20:39.043Z,-3.26
2023-04-08T10:25:43.371Z,-3.22
2023-04-08T10:30:47.662Z,-3.25
2023-04-08T10:36:15.683Z,-3.25
2023-04-08T10:41:24.985Z,-3.15
2023-04-08T10:46:38.861Z,-3.14
2023-04-08T10:51:42.752Z,-3.14
2023-04-08T10:56:55.137Z,-3.23
2023-04-08T11:01:58.915Z,-3.34
2023-04-08T11:07:06.182Z,-3.30
2023-04-08T11:12:09.082Z,-3.27
2023-04-08T11:17:13.176Z,-3.34
2023-04-08T11:22:17.054Z,-3.31
2023-04-08T11:27:20.269Z,-3.25
2023-04-08T11:32:23.734Z,-3.30
2023-04-08T11:37:29.656Z,-3.49
2023-04-08T11:42:33.456Z,-3.49
2023-04-08T11:47:36.956Z,-3.52
2023-04-08T11:52:50.400Z,-3.46
2023-04-08T11:57:53.949Z,-3.36
2023-04-08T12:02:56.800Z,-3.36
2023-04-08T12:07:59.768Z,-3.42
2023-04-08T12:13:02.418Z,-3.70
2023-04-08T12:18:06.228Z,-3.80
2023-04-08T12:23:08.992Z,-3.83
2023-04-08T12:28:12.111Z,-3.91
2023-04-08T12:33:14.799Z,-4.00
2023-04-08T12:38:17.991Z,-4.28
2023-04-08T12:43:21.360Z,-4.66
2023-04-08T12:48:24.170Z,-4.52
2023-04-08T12:53:27.056Z,-4.60
2023-04-08T12:58:29.748Z,-4.67
2023-04-08T13:03:32.561Z,-4.66
2023-04-08T13:08:35.412Z,-4.56
2023-04-08T13:13:38.162Z,-4.66
2023-04-08T13:18:41.657Z,-4.61
2023-04-08T13:23:44.544Z,-4.57
2023-04-08T13:28:56.630Z,-4.44
2023-04-08T13:34:00.591Z,-4.37
2023-04-08T13:39:03.392Z,-4.30
2023-04-08T13:44:06.088Z,-4.45
2023-04-08T13:49:09.956Z,-4.20
2023-04-08T13:54:12.677Z,-4.20
2023-04-08T13:59:15.681Z,-4.18
2023-04-08T14:04:18.784Z,-4.31
2023-04-08T14:09:21.683Z,-4.50
2023-04-08T14:14:24.449Z,-4.60
2023-04-08T14:19:27.167Z,-4.87
2023-04-08T14:24:29.898Z,-4.71
2023-04-08T14:29:32.699Z,-4.48
2023-04-08T14:34:35.659Z,-4.43
2023-04-08T14:39:38.493Z,-4.40
2023-04-08T14:44:41.758Z,-4.33
2023-04-08T14:49:44.545Z,-4.35
2023-04-08T14:54:48.380Z,-4.44
2023-04-08T14:59:51.813Z,-4.49
2023-04-08T15:04:54.415Z,-4.43
2023-04-08T15:09:57.283Z,-4.37
2023-04-08T15:15:00.033Z,-4.40
2023-04-08T15:20:02.809Z,-4.38
2023-04-08T15:25:09.247Z,-4.39
2023-04-08T15:30:12.501Z,-4.47
2023-04-08T15:35:15.356Z,-4.55
2023-04-08T15:40:18.223Z,-4.59
2023-04-08T15:45:21.129Z,-4.77
2023-04-08T15:50:23.866Z,-4.84
2023-04-08T15:55:26.817Z,-4.90
2023-04-08T16:00:29.551Z,-4.97
2023-04-08T16:05:34.624Z,-5.13
2023-04-08T16:10:37.690Z,-5.23
2023-04-08T16:15:40.388Z,-5.26
2023-04-08T16:20:43.124Z,-5.48
2023-04-08T16:25:46.313Z,-5.49
2023-04-08T16:30:49.203Z,-5.50
2023-04-08T16:35:52.992Z,-5.49
2023-04-08T16:40:59.014Z,-5.49
2023-04-08T16:46:11.125Z,-5.66
2023-04-08T16:51:13.970Z,-5.71
2023-04-08T16:56:16.992Z,-5.82
2023-04-08T17:01:20.243Z,-5.69
2023-04-08T17:06:22.961Z,-5.79
2023-04-08T17:11:25.842Z,-5.93
2023-04-08T17:16:29.421Z,-5.89
2023-04-08T17:21:32.828Z,-6.01
2023-04-08T17:26:35.602Z,-6.04
2023-04-08T17:31:40.238Z,-6.14
2023-04-08T17:36:43.414Z,-6.20
2023-04-08T17:41:46.564Z,-6.20
2023-04-08T17:46:49.212Z,-6.13
2023-04-08T17:51:52.096Z,-6.22
2023-04-08T17:56:54.799Z,-6.22
2023-04-08T18:01:57.542Z,-6.27
2023-04-08T18:07:04.195Z,-6.20
2023-04-08T18:12:07.056Z,-6.22
2023-04-08T18:17:10.115Z,-6.35
2023-04-08T18:22:12.847Z,-6.30
2023-04-08T18:27:15.643Z,-6.29
2023-04-08T18:32:18.389Z,-6.29
2023-04-08T18:37:22.055Z,-6.30
2023-04-08T18:42:24.829Z,-6.54
2023-04-08T18:47:27.838Z,-6.30
2023-04-08T18:52:32.490Z,-6.29
2023-04-08T18:57:36.203Z,-6.33
2023-04-08T19:02:39.181Z,-6.27
2023-04-08T19:07:41.900Z,-6.27
2023-04-08T19:12:44.624Z,-6.32
2023-04-08T19:17:47.501Z,-6.38
2023-04-08T19:22:50.666Z,-6.42
2023-04-08T19:27:53.469Z,-6.35
2023-04-08T19:32:56.168Z,-6.32
2023-04-08T19:37:58.980Z,-6.26
2023-04-08T19:43:01.706Z,-6.22
2023-04-08T19:48:04.531Z,-6.23
2023-04-08T19:53:07.240Z,-6.19
2023-04-08T19:58:09.932Z,-6.19
2023-04-08T20:03:14.202Z,-6.22
2023-04-08T20:08:17.013Z,-6.20
2023-04-08T20:13:19.946Z,-6.18
2023-04-08T20:18:23.192Z,-6.15
2023-04-08T20:23:26.990Z,-6.11
2023-04-08T20:28:29.942Z,-6.15
2023-04-08T20:33:32.839Z,-6.13
2023-04-08T20:38:37.214Z,-6.11
2023-04-08T20:43:39.944Z,-6.12
2023-04-08T20:48:42.750Z,-6.08
2023-04-08T20:53:45.405Z,-6.09
2023-04-08T20:58:49.670Z,-6.08
2023-04-08T21:03:53.061Z,-6.08
2023-04-08T21:08:55.809Z,-6.10
2023-04-08T21:13:58.491Z,-6.02
2023-04-08T21:19:02.295Z,-6.05
2023-04-08T21:24:07.358Z,-6.03
2023-04-08T21:29:11.766Z,-6.06
2023-04-08T21:34:14.796Z,-6.05
2023-04-08T21:39:17.516Z,-6.08
2023-04-08T21:44:20.291Z,-6.02
2023-04-08T21:49:23.137Z,-6.03
2023-04-08T21:54:26.254Z,-6.01
2023-04-08T21:59:28.982Z,-5.99
2023-04-08T22:04:31.742Z,-6.01
2023-04-08T22:09:34.820Z,-5.93
2023-04-08T22:14:38.051Z,-5.89
2023-04-08T22:19:40.753Z,-5.87
2023-04-08T22:24:43.423Z,-5.86
2023-04-08T22:29:46.300Z,-5.78
2023-04-08T22:34:49.318Z,-5.70
2023-04-08T22:39:52.124Z,-5.68
2023-04-08T22:44:54.848Z,-5.71
2023-04-08T22:49:58.201Z,-5.69
2023-04-08T22:55:01.212Z,-5.71
2023-04-08T23:00:06.153Z,-5.65
2023-04-08T23:05:09.376Z,-5.67
2023-04-08T23:10:12.345Z,-5.74
2023-04-08T23:15:15.174Z,-5.75
2023-04-08T23:20:17.972Z,-5.72
2023-04-08T23:25:20.724Z,-5.68
2023-04-08T23:30:23.500Z,-5.64
2023-04-08T23:35:26.242Z,-5.58
2023-04-08T23:40:28.952Z,-5.50
2023-04-08T23:45:31.662Z,-5.48
2023-04-08T23:50:34.495Z,-5.36
2023-04-08T23:55:37.124Z,-5.33
